sensor_id;sensor_type;location;lat;lon;timestamp;pressure;altitude;pressure_sealevel;temperature;humidity
47220;BME280;32961;51.936;4.788;2023-04-02T00:02:25;101182.00;;;6.40;100.00
47220;BME280;32961;51.936;4.788;2023-04-02T00:05:38;101188.69;;;6.47;100.00
47220;BME280;32961;51.936;4.788;2023-04-02T00:08:20;101186.00;;;6.47;100.00
47220;BME280;32961;51.936;4.788;2023-04-02T00:10:50;101190.31;;;6.50;100.00
47220;BME280;32961;51.936;4.788;2023-04-02T00:13:27;101202.38;;;6.57;100.00
47220;BME280;32961;51.936;4.788;2023-04-02T00:15:57;101206.63;;;6.48;100.00
47220;BME280;32961;51.936;4.788;2023-04-02T00:18:26;101207.06;;;6.42;100.00
47220;BME280;32961;51.936;4.788;2023-04-02T00:21:07;101214.19;;;6.43;100.00
47220;BME280;32961;51.936;4.788;2023-04-02T00:23:36;101216.34;;;6.38;100.00
47220;BME280;32961;51.936;4.788;2023-04-02T00:26:17;101219.78;;;6.40;100.00
47220;BME280;32961;51.936;4.788;2023-04-02T00:28:48;101218.09;;;6.39;100.00
47220;BME280;32961;51.936;4.788;2023-04-02T00:31:18;101218.50;;;6.33;100.00
47220;BME280;32961;51.936;4.788;2023-04-02T00:33:47;101228.84;;;6.26;100.00
47220;BME280;32961;51.936;4.788;2023-04-02T00:36:17;101233.19;;;6.29;100.00
47220;BME280;32961;51.936;4.788;2023-04-02T00:38:46;101231.66;;;6.24;100.00
47220;BME280;32961;51.936;4.788;2023-04-02T00:41:19;101257.03;;;6.22;100.00
47220;BME280;32961;51.936;4.788;2023-04-02T00:43:50;101247.53;;;6.16;100.00
47220;BME280;32961;51.936;4.788;2023-04-02T00:46:20;101259.28;;;6.15;100.00
47220;BME280;32961;51.936;4.788;2023-04-02T00:48:53;101259.81;;;6.20;100.00
47220;BME280;32961;51.936;4.788;2023-04-02T00:51:27;101261.56;;;6.21;100.00
47220;BME280;32961;51.936;4.788;2023-04-02T00:53:59;101257.47;;;6.29;100.00
47220;BME280;32961;51.936;4.788;2023-04-02T00:56:30;101268.16;;;6.30;100.00
47220;BME280;32961;51.936;4.788;2023-04-02T00:59:00;101265.69;;;6.27;100.00
47220;BME280;32961;51.936;4.788;2023-04-02T01:01:33;101273.22;;;6.35;100.00
47220;BME280;32961;51.936;4.788;2023-04-02T01:04:02;101276.91;;;6.34;100.00
47220;BME280;32961;51.936;4.788;2023-04-02T01:06:33;101283.91;;;6.36;100.00
47220;BME280;32961;51.936;4.788;2023-04-02T01:09:13;101288.34;;;6.24;100.00
47220;BME280;32961;51.936;4.788;2023-04-02T01:12:09;101294.59;;;6.12;100.00
47220;BME280;32961;51.936;4.788;2023-04-02T01:14:48;101296.72;;;6.07;100.00
47220;BME280;32961;51.936;4.788;2023-04-02T01:17:32;101300.88;;;5.98;100.00
47220;BME280;32961;51.936;4.788;2023-04-02T01:20:20;101306.38;;;5.97;100.00
47220;BME280;32961;51.936;4.788;2023-04-02T01:22:56;101307.97;;;5.86;100.00
47220;BME280;32961;51.936;4.788;2023-04-02T01:25:30;101301.56;;;5.87;100.00
47220;BME280;32961;51.936;4.788;2023-04-02T01:28:06;101315.66;;;5.92;100.00
47220;BME280;32961;51.936;4.788;2023-04-02T01:30:37;101314.47;;;5.97;100.00
47220;BME280;32961;51.936;4.788;2023-04-02T01:33:05;101320.06;;;5.93;100.00
47220;BME280;32961;51.936;4.788;2023-04-02T01:35:38;101319.69;;;6.00;100.00
47220;BME280;32961;51.936;4.788;2023-04-02T01:38:10;101334.81;;;6.02;100.00
47220;BME280;32961;51.936;4.788;2023-04-02T01:40:44;101340.00;;;5.91;100.00
47220;BME280;32961;51.936;4.788;2023-04-02T01:43:18;101346.06;;;5.94;100.00
47220;BME280;32961;51.936;4.788;2023-04-02T01:45:51;101344.13;;;5.97;100.00
47220;BME280;32961;51.936;4.788;2023-04-02T01:48:22;101359.00;;;5.89;100.00
47220;BME280;32961;51.936;4.788;2023-04-02T01:50:50;101350.34;;;5.84;100.00
47220;BME280;32961;51.936;4.788;2023-04-02T01:53:22;101361.97;;;5.85;100.00
47220;BME280;32961;51.936;4.788;2023-04-02T01:55:53;101368.97;;;5.74;100.00
47220;BME280;32961;51.936;4.788;2023-04-02T01:58:23;101364.34;;;5.76;100.00
47220;BME280;32961;51.936;4.788;2023-04-02T02:00:56;101387.31;;;5.82;100.00
47220;BME280;32961;51.936;4.788;2023-04-02T02:03:26;101367.59;;;5.82;100.00
47220;BME280;32961;51.936;4.788;2023-04-02T02:05:55;101376.66;;;5.81;100.00
47220;BME280;32961;51.936;4.788;2023-04-02T02:08:36;101380.97;;;5.83;100.00
47220;BME280;32961;51.936;4.788;2023-04-02T02:11:07;101392.16;;;5.77;100.00
47220;BME280;32961;51.936;4.788;2023-04-02T02:13:38;101383.66;;;5.83;100.00
47220;BME280;32961;51.936;4.788;2023-04-02T02:16:14;101392.06;;;5.78;100.00
47220;BME280;32961;51.936;4.788;2023-04-02T02:18:45;101397.38;;;5.66;100.00
47220;BME280;32961;51.936;4.788;2023-04-02T02:21:23;101405.00;;;5.59;100.00
47220;BME280;32961;51.936;4.788;2023-04-02T02:23:53;101402.22;;;5.60;100.00
47220;BME280;32961;51.936;4.788;2023-04-02T02:26:23;101419.06;;;5.64;100.00
47220;BME280;32961;51.936;4.788;2023-04-02T02:28:54;101412.91;;;5.62;100.00
47220;BME280;32961;51.936;4.788;2023-04-02T02:31:28;101419.91;;;5.65;100.00
47220;BME280;32961;51.936;4.788;2023-04-02T02:34:02;101427.50;;;5.58;100.00
47220;BME280;32961;51.936;4.788;2023-04-02T02:36:34;101430.13;;;5.59;100.00
47220;BME280;32961;51.936;4.788;2023-04-02T02:39:12;101434.06;;;5.54;100.00
47220;BME280;32961;51.936;4.788;2023-04-02T02:41:46;101442.34;;;5.65;100.00
47220;BME280;32961;51.936;4.788;2023-04-02T02:44:19;101441.22;;;5.55;100.00
47220;BME280;32961;51.936;4.788;2023-04-02T02:46:51;101442.84;;;5.57;100.00
47220;BME280;32961;51.936;4.788;2023-04-02T02:49:25;101450.47;;;5.51;100.00
47220;BME280;32961;51.936;4.788;2023-04-02T02:51:57;101459.50;;;5.50;100.00
47220;BME280;32961;51.936;4.788;2023-04-02T02:54:27;101464.22;;;5.46;100.00
47220;BME280;32961;51.936;4.788;2023-04-02T02:56:59;101456.25;;;5.44;100.00
47220;BME280;32961;51.936;4.788;2023-04-02T02:59:28;101472.22;;;5.47;100.00
47220;BME280;32961;51.936;4.788;2023-04-02T03:01:59;101476.91;;;5.44;100.00
47220;BME280;32961;51.936;4.788;2023-04-02T03:04:28;101479.81;;;5.41;100.00
47220;BME280;32961;51.936;4.788;2023-04-02T03:07:01;101479.22;;;5.36;100.00
47220;BME280;32961;51.936;4.788;2023-04-02T03:09:37;101488.88;;;5.40;100.00
47220;BME280;32961;51.936;4.788;2023-04-02T03:12:18;101498.69;;;5.41;100.00
47220;BME280;32961;51.936;4.788;2023-04-02T03:14:54;101501.06;;;5.45;100.00
47220;BME280;32961;51.936;4.788;2023-04-02T03:17:29;101513.13;;;5.40;100.00
47220;BME280;32961;51.936;4.788;2023-04-02T03:20:03;101516.88;;;5.37;100.00
47220;BME280;32961;51.936;4.788;2023-04-02T03:22:40;101523.88;;;5.25;100.00
47220;BME280;32961;51.936;4.788;2023-04-02T03:25:21;101523.88;;;5.25;100.00
47220;BME280;32961;51.936;4.788;2023-04-02T03:27:56;101522.50;;;5.18;100.00
47220;BME280;32961;51.936;4.788;2023-04-02T03:30:29;101528.47;;;5.23;100.00
47220;BME280;32961;51.936;4.788;2023-04-02T03:33:02;101546.75;;;5.18;100.00
47220;BME280;32961;51.936;4.788;2023-04-02T03:35:35;101544.91;;;5.04;100.00
47220;BME280;32961;51.936;4.788;2023-04-02T03:38:12;101540.81;;;4.97;100.00
47220;BME280;32961;51.936;4.788;2023-04-02T03:40:44;101553.59;;;4.93;100.00
47220;BME280;32961;51.936;4.788;2023-04-02T03:43:19;101553.88;;;4.89;100.00
47220;BME280;32961;51.936;4.788;2023-04-02T03:45:51;101564.13;;;4.98;100.00
47220;BME280;32961;51.936;4.788;2023-04-02T03:48:26;101570.25;;;5.00;100.00
47220;BME280;32961;51.936;4.788;2023-04-02T03:50:58;101570.63;;;4.94;100.00
47220;BME280;32961;51.936;4.788;2023-04-02T03:53:27;101580.91;;;4.87;100.00
47220;BME280;32961;51.936;4.788;2023-04-02T03:55:58;101594.81;;;4.79;100.00
47220;BME280;32961;51.936;4.788;2023-04-02T03:58:31;101603.66;;;4.81;100.00
47220;BME280;32961;51.936;4.788;2023-04-02T04:01:05;101605.41;;;4.82;100.00
47220;BME280;32961;51.936;4.788;2023-04-02T04:03:39;101612.44;;;4.85;100.00
47220;BME280;32961;51.936;4.788;2023-04-02T04:06:10;101626.69;;;4.87;100.00
47220;BME280;32961;51.936;4.788;2023-04-02T04:08:43;101629.19;;;4.90;100.00
47220;BME280;32961;51.936;4.788;2023-04-02T04:11:14;101636.16;;;4.94;100.00
47220;BME280;32961;51.936;4.788;2023-04-02T04:13:45;101640.13;;;4.87;100.00
47220;BME280;32961;51.936;4.788;2023-04-02T04:16:19;101646.47;;;4.86;100.00
47220;BME280;32961;51.936;4.788;2023-04-02T04:18:52;101648.66;;;4.79;100.00
47220;BME280;32961;51.936;4.788;2023-04-02T04:21:28;101653.50;;;4.73;99.86
47220;BME280;32961;51.936;4.788;2023-04-02T04:24:00;101660.75;;;4.72;99.59
47220;BME280;32961;51.936;4.788;2023-04-02T04:26:35;101652.22;;;4.64;100.00
47220;BME280;32961;51.936;4.788;2023-04-02T04:29:13;101657.34;;;4.69;100.00
47220;BME280;32961;51.936;4.788;2023-04-02T04:31:46;101663.06;;;4.62;100.00
47220;BME280;32961;51.936;4.788;2023-04-02T04:34:20;101666.72;;;4.61;100.00
47220;BME280;32961;51.936;4.788;2023-04-02T04:36:53;101671.84;;;4.66;100.00
47220;BME280;32961;51.936;4.788;2023-04-02T04:39:25;101689.09;;;4.62;100.00
47220;BME280;32961;51.936;4.788;2023-04-02T04:41:58;101688.34;;;4.60;100.00
47220;BME280;32961;51.936;4.788;2023-04-02T04:44:38;101689.66;;;4.69;100.00
47220;BME280;32961;51.936;4.788;2023-04-02T04:47:12;101700.41;;;4.69;100.00
47220;BME280;32961;51.936;4.788;2023-04-02T04:49:46;101705.81;;;4.69;100.00
47220;BME280;32961;51.936;4.788;2023-04-02T04:52:19;101703.47;;;4.62;100.00
47220;BME280;32961;51.936;4.788;2023-04-02T04:54:47;101710.66;;;4.62;100.00
47220;BME280;32961;51.936;4.788;2023-04-02T04:57:24;101709.44;;;4.68;100.00
47220;BME280;32961;51.936;4.788;2023-04-02T04:59:57;101705.16;;;4.63;100.00
47220;BME280;32961;51.936;4.788;2023-04-02T05:02:31;101720.56;;;4.77;100.00
47220;BME280;32961;51.936;4.788;2023-04-02T05:05:02;101727.50;;;4.65;99.14
47220;BME280;32961;51.936;4.788;2023-04-02T05:07:31;101735.13;;;4.57;99.50
47220;BME280;32961;51.936;4.788;2023-04-02T05:10:07;101734.34;;;4.55;99.68
47220;BME280;32961;51.936;4.788;2023-04-02T05:12:42;101730.06;;;4.51;98.93
47220;BME280;32961;51.936;4.788;2023-04-02T05:15:16;101746.88;;;4.56;98.43
47220;BME280;32961;51.936;4.788;2023-04-02T05:17:51;101753.34;;;4.52;98.61
47220;BME280;32961;51.936;4.788;2023-04-02T05:20:26;101752.63;;;4.48;98.14
47220;BME280;32961;51.936;4.788;2023-04-02T05:22:58;101760.94;;;4.44;98.00
47220;BME280;32961;51.936;4.788;2023-04-02T05:25:31;101765.56;;;4.42;98.18
47220;BME280;32961;51.936;4.788;2023-04-02T05:28:02;101767.38;;;4.41;97.05
47220;BME280;32961;51.936;4.788;2023-04-02T05:30:39;101782.03;;;4.36;96.75
47220;BME280;32961;51.936;4.788;2023-04-02T05:33:23;101786.38;;;4.38;97.40
47220;BME280;32961;51.936;4.788;2023-04-02T05:35:57;101789.94;;;4.39;97.24
47220;BME280;32961;51.936;4.788;2023-04-02T05:38:26;101798.25;;;4.34;96.38
47220;BME280;32961;51.936;4.788;2023-04-02T05:40:59;101798.34;;;4.50;96.31
47220;BME280;32961;51.936;4.788;2023-04-02T05:43:31;101813.84;;;4.45;95.54
47220;BME280;32961;51.936;4.788;2023-04-02T05:46:03;101816.41;;;4.30;94.95
47220;BME280;32961;51.936;4.788;2023-04-02T05:48:37;101813.84;;;4.27;95.44
47220;BME280;32961;51.936;4.788;2023-04-02T05:51:13;101821.94;;;4.27;96.06
47220;BME280;32961;51.936;4.788;2023-04-02T05:53:46;101830.09;;;4.26;96.33
47220;BME280;32961;51.936;4.788;2023-04-02T05:56:19;101838.78;;;4.31;96.28
47220;BME280;32961;51.936;4.788;2023-04-02T05:58:50;101838.69;;;4.15;95.97
47220;BME280;32961;51.936;4.788;2023-04-02T06:01:34;101838.94;;;4.10;95.67
47220;BME280;32961;51.936;4.788;2023-04-02T06:04:11;101849.06;;;4.05;95.82
47220;BME280;32961;51.936;4.788;2023-04-02T06:06:46;101859.00;;;4.03;95.07
47220;BME280;32961;51.936;4.788;2023-04-02T06:09:21;101873.97;;;3.91;93.92
47220;BME280;32961;51.936;4.788;2023-04-02T06:11:56;101874.41;;;3.82;93.21
47220;BME280;32961;51.936;4.788;2023-04-02T06:14:26;101886.19;;;3.79;93.58
47220;BME280;32961;51.936;4.788;2023-04-02T06:16:54;101887.25;;;3.75;92.54
47220;BME280;32961;51.936;4.788;2023-04-02T06:19:26;101899.75;;;3.76;93.07
47220;BME280;32961;51.936;4.788;2023-04-02T06:22:06;101908.34;;;3.65;92.18
47220;BME280;32961;51.936;4.788;2023-04-02T06:24:36;101916.22;;;3.51;91.29
47220;BME280;32961;51.936;4.788;2023-04-02T06:27:06;101920.84;;;3.47;91.63
47220;BME280;32961;51.936;4.788;2023-04-02T06:29:41;101935.22;;;3.46;91.87
47220;BME280;32961;51.936;4.788;2023-04-02T06:32:11;101934.78;;;3.56;92.81
47220;BME280;32961;51.936;4.788;2023-04-02T06:34:40;101940.16;;;3.56;91.89
47220;BME280;32961;51.936;4.788;2023-04-02T06:37:16;101951.63;;;3.40;91.27
47220;BME280;32961;51.936;4.788;2023-04-02T06:39:46;101951.19;;;3.49;92.45
47220;BME280;32961;51.936;4.788;2023-04-02T06:42:19;101958.31;;;3.50;90.72
47220;BME280;32961;51.936;4.788;2023-04-02T06:44:48;101965.72;;;3.45;90.25
47220;BME280;32961;51.936;4.788;2023-04-02T06:47:28;101975.94;;;3.37;90.52
47220;BME280;32961;51.936;4.788;2023-04-02T06:50:00;101971.09;;;3.45;90.75
47220;BME280;32961;51.936;4.788;2023-04-02T06:52:33;101970.66;;;3.35;89.92
47220;BME280;32961;51.936;4.788;2023-04-02T06:55:20;101967.84;;;3.39;89.53
47220;BME280;32961;51.936;4.788;2023-04-02T06:57:52;101980.66;;;3.32;90.55
47220;BME280;32961;51.936;4.788;2023-04-02T07:00:24;101990.81;;;3.25;90.32
47220;BME280;32961;51.936;4.788;2023-04-02T07:02:56;101984.56;;;3.25;90.36
47220;BME280;32961;51.936;4.788;2023-04-02T07:05:26;101995.63;;;3.37;91.11
47220;BME280;32961;51.936;4.788;2023-04-02T07:07:55;102005.84;;;3.29;91.28
47220;BME280;32961;51.936;4.788;2023-04-02T07:10:23;102005.38;;;3.19;90.39
47220;BME280;32961;51.936;4.788;2023-04-02T07:12:52;102012.44;;;3.22;90.48
47220;BME280;32961;51.936;4.788;2023-04-02T07:15:19;102018.06;;;3.16;91.25
47220;BME280;32961;51.936;4.788;2023-04-02T07:17:49;102019.81;;;3.17;90.00
47220;BME280;32961;51.936;4.788;2023-04-02T07:20:24;102034.81;;;3.23;89.98
47220;BME280;32961;51.936;4.788;2023-04-02T07:22:53;102035.66;;;3.23;89.16
47220;BME280;32961;51.936;4.788;2023-04-02T07:25:24;102036.47;;;3.25;89.95
47220;BME280;32961;51.936;4.788;2023-04-02T07:27:52;102044.38;;;3.28;89.69
47220;BME280;32961;51.936;4.788;2023-04-02T07:30:20;102053.63;;;3.23;89.25
47220;BME280;32961;51.936;4.788;2023-04-02T07:32:48;102053.34;;;3.29;90.36
47220;BME280;32961;51.936;4.788;2023-04-02T07:35:16;102059.56;;;3.29;89.74
47220;BME280;32961;51.936;4.788;2023-04-02T07:37:44;102065.69;;;3.33;89.50
47220;BME280;32961;51.936;4.788;2023-04-02T07:40:15;102064.00;;;3.30;89.01
47220;BME280;32961;51.936;4.788;2023-04-02T07:42:45;102076.63;;;3.28;89.06
47220;BME280;32961;51.936;4.788;2023-04-02T07:45:13;102079.38;;;3.27;89.69
47220;BME280;32961;51.936;4.788;2023-04-02T07:47:41;102076.22;;;3.17;90.05
47220;BME280;32961;51.936;4.788;2023-04-02T07:50:09;102090.47;;;3.19;90.94
47220;BME280;32961;51.936;4.788;2023-04-02T07:52:38;102089.28;;;3.26;90.55
47220;BME280;32961;51.936;4.788;2023-04-02T07:55:11;102093.00;;;3.22;91.11
47220;BME280;32961;51.936;4.788;2023-04-02T07:57:46;102098.75;;;3.35;91.36
47220;BME280;32961;51.936;4.788;2023-04-02T08:00:17;102108.94;;;3.27;91.61
47220;BME280;32961;51.936;4.788;2023-04-02T08:02:46;102104.22;;;3.32;92.46
47220;BME280;32961;51.936;4.788;2023-04-02T08:05:14;102112.56;;;3.26;91.23
47220;BME280;32961;51.936;4.788;2023-04-02T08:07:43;102113.66;;;3.21;91.57
47220;BME280;32961;51.936;4.788;2023-04-02T08:10:11;102121.69;;;3.21;92.16
47220;BME280;32961;51.936;4.788;2023-04-02T08:12:39;102129.81;;;3.20;92.23
47220;BME280;32961;51.936;4.788;2023-04-02T08:15:08;102136.81;;;3.24;91.57
47220;BME280;32961;51.936;4.788;2023-04-02T08:17:37;102133.75;;;3.11;92.06
47220;BME280;32961;51.936;4.788;2023-04-02T08:20:06;102151.19;;;3.01;93.20
47220;BME280;32961;51.936;4.788;2023-04-02T08:22:37;102141.69;;;3.14;93.27
47220;BME280;32961;51.936;4.788;2023-04-02T08:25:05;102147.38;;;3.29;93.10
47220;BME280;32961;51.936;4.788;2023-04-02T08:27:33;102154.53;;;3.28;92.54
47220;BME280;32961;51.936;4.788;2023-04-02T08:30:02;102162.47;;;3.31;91.84
47220;BME280;32961;51.936;4.788;2023-04-02T08:32:30;102166.34;;;3.24;91.97
47220;BME280;32961;51.936;4.788;2023-04-02T08:34:59;102167.38;;;3.21;92.73
47220;BME280;32961;51.936;4.788;2023-04-02T08:37:28;102172.75;;;3.21;92.18
47220;BME280;32961;51.936;4.788;2023-04-02T08:39:55;102168.78;;;3.30;91.95
47220;BME280;32961;51.936;4.788;2023-04-02T08:42:29;102178.19;;;3.41;91.07
47220;BME280;32961;51.936;4.788;2023-04-02T08:45:07;102191.59;;;3.42;91.73
47220;BME280;32961;51.936;4.788;2023-04-02T08:47:47;102191.44;;;3.45;90.94
47220;BME280;32961;51.936;4.788;2023-04-02T08:50:25;102202.59;;;3.57;90.69
47220;BME280;32961;51.936;4.788;2023-04-02T08:52:55;102209.72;;;3.58;89.91
47220;BME280;32961;51.936;4.788;2023-04-02T08:55:32;102216.72;;;3.41;88.72
47220;BME280;32961;51.936;4.788;2023-04-02T08:58:05;102217.06;;;3.32;89.19
47220;BME280;32961;51.936;4.788;2023-04-02T09:00:36;102217.72;;;3.39;89.95
47220;BME280;32961;51.936;4.788;2023-04-02T09:03:09;102231.56;;;3.50;88.81
47220;BME280;32961;51.936;4.788;2023-04-02T09:05:41;102226.69;;;3.37;88.48
47220;BME280;32961;51.936;4.788;2023-04-02T09:08:15;102228.72;;;3.32;87.49
47220;BME280;32961;51.936;4.788;2023-04-02T09:10:50;102229.56;;;3.33;88.40
47220;BME280;32961;51.936;4.788;2023-04-02T09:13:22;102229.50;;;3.34;87.60
47220;BME280;32961;51.936;4.788;2023-04-02T09:15:55;102241.06;;;3.36;87.63
47220;BME280;32961;51.936;4.788;2023-04-02T09:18:27;102237.56;;;3.34;87.92
47220;BME280;32961;51.936;4.788;2023-04-02T09:20:59;102239.81;;;3.45;87.47
47220;BME280;32961;51.936;4.788;2023-04-02T09:23:28;102243.53;;;3.63;87.36
47220;BME280;32961;51.936;4.788;2023-04-02T09:25:57;102254.22;;;3.65;86.55
47220;BME280;32961;51.936;4.788;2023-04-02T09:28:30;102260.53;;;3.64;87.19
47220;BME280;32961;51.936;4.788;2023-04-02T09:31:02;102264.06;;;3.44;85.47
47220;BME280;32961;51.936;4.788;2023-04-02T09:33:43;102275.94;;;3.38;85.73
47220;BME280;32961;51.936;4.788;2023-04-02T09:36:32;102271.44;;;3.39;85.22
47220;BME280;32961;51.936;4.788;2023-04-02T09:39:03;102272.06;;;3.45;86.36
47220;BME280;32961;51.936;4.788;2023-04-02T09:41:35;102281.31;;;3.38;85.66
47220;BME280;32961;51.936;4.788;2023-04-02T09:44:18;102279.88;;;3.51;85.55
47220;BME280;32961;51.936;4.788;2023-04-02T09:46:52;102283.31;;;3.55;83.95
47220;BME280;32961;51.936;4.788;2023-04-02T09:49:22;102288.94;;;3.49;84.64
47220;BME280;32961;51.936;4.788;2023-04-02T09:52:17;102286.84;;;3.56;84.34
47220;BME280;32961;51.936;4.788;2023-04-02T09:54:46;102293.44;;;3.71;85.11
47220;BME280;32961;51.936;4.788;2023-04-02T09:57:19;102291.97;;;3.84;85.38
47220;BME280;32961;51.936;4.788;2023-04-02T10:00:14;102300.00;;;4.06;85.34
47220;BME280;32961;51.936;4.788;2023-04-02T10:03:03;102303.00;;;3.98;83.77
47220;BME280;32961;51.936;4.788;2023-04-02T10:05:33;102314.84;;;3.94;82.69
47220;BME280;32961;51.936;4.788;2023-04-02T10:08:17;102313.75;;;3.98;83.08
47220;BME280;32961;51.936;4.788;2023-04-02T10:10:48;102324.25;;;4.05;83.15
47220;BME280;32961;51.936;4.788;2023-04-02T10:13:22;102325.88;;;4.09;82.77
47220;BME280;32961;51.936;4.788;2023-04-02T10:15:54;102324.84;;;3.91;81.79
47220;BME280;32961;51.936;4.788;2023-04-02T10:18:36;102335.06;;;4.03;82.11
47220;BME280;32961;51.936;4.788;2023-04-02T10:21:05;102332.00;;;4.12;82.59
47220;BME280;32961;51.936;4.788;2023-04-02T10:23:36;102337.31;;;4.14;81.69
47220;BME280;32961;51.936;4.788;2023-04-02T10:26:16;102340.00;;;4.34;82.98
47220;BME280;32961;51.936;4.788;2023-04-02T10:29:03;102345.66;;;4.49;81.18
47220;BME280;32961;51.936;4.788;2023-04-02T10:31:41;102346.72;;;4.45;80.34
47220;BME280;32961;51.936;4.788;2023-04-02T10:34:16;102352.81;;;4.50;78.68
47220;BME280;32961;51.936;4.788;2023-04-02T10:36:50;102345.44;;;4.54;79.63
47220;BME280;32961;51.936;4.788;2023-04-02T10:39:24;102345.53;;;4.52;78.81
47220;BME280;32961;51.936;4.788;2023-04-02T10:41:59;102357.84;;;4.58;78.53
47220;BME280;32961;51.936;4.788;2023-04-02T10:44:41;102365.03;;;4.57;78.74
47220;BME280;32961;51.936;4.788;2023-04-02T10:47:25;102365.91;;;4.58;79.77
47220;BME280;32961;51.936;4.788;2023-04-02T10:50:07;102365.94;;;4.77;79.81
47220;BME280;32961;51.936;4.788;2023-04-02T10:52:44;102362.66;;;5.10;78.92
47220;BME280;32961;51.936;4.788;2023-04-02T10:55:20;102366.09;;;5.33;77.50
47220;BME280;32961;51.936;4.788;2023-04-02T10:57:51;102371.63;;;5.49;75.81
47220;BME280;32961;51.936;4.788;2023-04-02T11:00:24;102374.72;;;5.77;76.51
47220;BME280;32961;51.936;4.788;2023-04-02T11:02:56;102376.75;;;5.91;73.97
47220;BME280;32961;51.936;4.788;2023-04-02T11:05:30;102381.47;;;6.05;72.42
47220;BME280;32961;51.936;4.788;2023-04-02T11:08:05;102372.63;;;6.21;72.08
47220;BME280;32961;51.936;4.788;2023-04-02T11:10:38;102375.22;;;6.40;68.89
47220;BME280;32961;51.936;4.788;2023-04-02T11:13:14;102380.38;;;6.45;68.01
47220;BME280;32961;51.936;4.788;2023-04-02T11:15:44;102374.75;;;6.49;69.77
47220;BME280;32961;51.936;4.788;2023-04-02T11:18:24;102383.34;;;6.57;68.23
47220;BME280;32961;51.936;4.788;2023-04-02T11:21:03;102382.38;;;6.58;65.77
47220;BME280;32961;51.936;4.788;2023-04-02T11:23:34;102389.38;;;6.63;66.36
47220;BME280;32961;51.936;4.788;2023-04-02T11:29:23;102392.63;;;7.03;66.39
47220;BME280;32961;51.936;4.788;2023-04-02T11:32:14;102394.53;;;7.01;64.52
47220;BME280;32961;51.936;4.788;2023-04-02T11:37:44;102396.19;;;7.03;65.75
47220;BME280;32961;51.936;4.788;2023-04-02T11:40:44;102396.69;;;7.28;65.50
47220;BME280;32961;51.936;4.788;2023-04-02T11:43:47;102394.34;;;7.53;64.11
47220;BME280;32961;51.936;4.788;2023-04-02T11:46:42;102403.34;;;7.70;64.69
47220;BME280;32961;51.936;4.788;2023-04-02T11:49:31;102389.66;;;7.57;64.43
47220;BME280;32961;51.936;4.788;2023-04-02T11:51:59;102390.78;;;7.85;64.39
47220;BME280;32961;51.936;4.788;2023-04-02T11:54:37;102389.91;;;7.84;63.26
47220;BME280;32961;51.936;4.788;2023-04-02T11:57:15;102406.72;;;7.90;64.88
47220;BME280;32961;51.936;4.788;2023-04-02T11:59:59;102403.69;;;7.96;62.15
47220;BME280;32961;51.936;4.788;2023-04-02T12:02:38;102398.78;;;8.02;61.92
47220;BME280;32961;51.936;4.788;2023-04-02T12:05:18;102406.09;;;8.16;62.94
47220;BME280;32961;51.936;4.788;2023-04-02T12:08:21;102412.47;;;7.99;60.52
47220;BME280;32961;51.936;4.788;2023-04-02T12:10:55;102407.47;;;8.24;61.97
47220;BME280;32961;51.936;4.788;2023-04-02T12:13:50;102418.63;;;8.49;62.00
47220;BME280;32961;51.936;4.788;2023-04-02T12:16:20;102417.69;;;8.65;59.38
47220;BME280;32961;51.936;4.788;2023-04-02T12:18:51;102424.28;;;8.75;58.35
47220;BME280;32961;51.936;4.788;2023-04-02T12:21:22;102434.44;;;8.72;56.88
47220;BME280;32961;51.936;4.788;2023-04-02T12:23:53;102416.31;;;8.58;57.41
47220;BME280;32961;51.936;4.788;2023-04-02T12:26:30;102429.88;;;8.58;56.83
47220;BME280;32961;51.936;4.788;2023-04-02T12:29:18;102433.59;;;8.71;56.82
47220;BME280;32961;51.936;4.788;2023-04-02T12:31:49;102431.47;;;8.76;56.77
47220;BME280;32961;51.936;4.788;2023-04-02T12:34:20;102435.69;;;8.96;57.65
47220;BME280;32961;51.936;4.788;2023-04-02T12:36:57;102432.84;;;8.98;54.84
47220;BME280;32961;51.936;4.788;2023-04-02T12:39:28;102435.50;;;9.14;55.56
47220;BME280;32961;51.936;4.788;2023-04-02T12:41:57;102437.50;;;9.10;54.61
47220;BME280;32961;51.936;4.788;2023-04-02T12:44:26;102436.16;;;9.03;55.29
47220;BME280;32961;51.936;4.788;2023-04-02T12:46:54;102434.31;;;9.04;54.57
47220;BME280;32961;51.936;4.788;2023-04-02T12:49:45;102422.22;;;9.09;55.21
47220;BME280;32961;51.936;4.788;2023-04-02T12:52:14;102428.13;;;9.16;54.33
47220;BME280;32961;51.936;4.788;2023-04-02T12:54:44;102436.94;;;9.34;54.80
47220;BME280;32961;51.936;4.788;2023-04-02T13:00:31;102434.50;;;9.58;53.22
47220;BME280;32961;51.936;4.788;2023-04-02T13:03:06;102444.16;;;9.62;51.74
47220;BME280;32961;51.936;4.788;2023-04-02T13:05:44;102438.75;;;9.62;53.02
47220;BME280;32961;51.936;4.788;2023-04-02T13:08:16;102439.13;;;9.71;52.14
47220;BME280;32961;51.936;4.788;2023-04-02T13:10:45;102427.78;;;9.78;52.83
47220;BME280;32961;51.936;4.788;2023-04-02T13:13:24;102434.63;;;9.84;52.50
47220;BME280;32961;51.936;4.788;2023-04-02T13:16:05;102434.59;;;9.99;51.86
47220;BME280;32961;51.936;4.788;2023-04-02T13:18:35;102437.91;;;9.89;52.08
47220;BME280;32961;51.936;4.788;2023-04-02T13:21:06;102431.22;;;9.95;52.47
47220;BME280;32961;51.936;4.788;2023-04-02T13:23:49;102450.09;;;10.11;50.18
47220;BME280;32961;51.936;4.788;2023-04-02T13:26:18;102443.69;;;10.12;50.21
47220;BME280;32961;51.936;4.788;2023-04-02T13:28:58;102452.53;;;10.01;51.31
47220;BME280;32961;51.936;4.788;2023-04-02T13:31:27;102459.72;;;10.02;51.55
47220;BME280;32961;51.936;4.788;2023-04-02T13:33:56;102454.53;;;9.85;50.15
47220;BME280;32961;51.936;4.788;2023-04-02T13:36:25;102454.69;;;9.96;50.71
47220;BME280;32961;51.936;4.788;2023-04-02T13:38:55;102460.25;;;9.80;50.55
47220;BME280;32961;51.936;4.788;2023-04-02T13:41:24;102459.22;;;9.95;51.02